createdAt,value
2022-09-20T05:29:53.779Z,49.93
2022-09-20T05:32:05.125Z,49.43
2022-09-20T05:34:18.164Z,49.36
2022-09-20T05:36:34.217Z,48.87
2022-09-20T05:38:48.254Z,49.00
2022-09-20T05:41:05.775Z,48.76
2022-09-20T05:43:12.811Z,48.64
2022-09-20T05:45:32.789Z,48.19
2022-09-20T05:47:46.658Z,48.44
2022-09-20T05:50:01.396Z,48.18
2022-09-20T05:52:26.418Z,48.25
2022-09-20T05:54:56.710Z,47.99
2022-09-20T05:57:13.839Z,48.10
2022-09-20T05:59:29.908Z,48.25
2022-09-20T06:01:40.818Z,48.11
2022-09-20T06:03:49.309Z,48.01
2022-09-20T06:06:03.530Z,48.04
2022-09-20T06:08:24.492Z,47.83
2022-09-20T06:10:56.098Z,47.84
2022-09-20T06:13:05.383Z,47.59
2022-09-20T06:15:19.360Z,47.69
2022-09-20T06:17:29.644Z,47.67
2022-09-20T06:19:40.230Z,47.75
2022-09-20T06:21:51.895Z,47.75
2022-09-20T06:23:59.750Z,47.38
2022-09-20T06:26:07.748Z,47.76
2022-09-20T06:28:19.222Z,47.38
2022-09-20T06:30:29.257Z,47.28
2022-09-20T06:32:34.635Z,47.58
2022-09-20T06:34:38.744Z,47.33
2022-09-20T06:37:06.369Z,47.30
2022-09-20T06:39:38.428Z,47.35
2022-09-20T06:41:42.909Z,47.24
2022-09-20T06:43:46.095Z,47.09
2022-09-20T06:45:49.177Z,47.19
2022-09-20T06:47:53.920Z,47.01
2022-09-20T06:49:59.086Z,47.13
2022-09-20T06:52:02.439Z,47.00
2022-09-20T06:54:08.599Z,47.15
2022-09-20T06:56:17.830Z,46.99
2022-09-20T06:58:20.665Z,46.80
2022-09-20T07:00:23.752Z,46.68
2022-09-20T07:02:27.499Z,46.72
2022-09-20T07:04:33.516Z,46.48
2022-09-20T07:06:37.003Z,46.90
2022-09-20T07:08:40.433Z,46.67
2022-09-20T07:10:44.033Z,46.78
2022-09-20T07:12:47.642Z,46.49
2022-09-20T07:14:51.631Z,46.78
2022-09-20T07:16:54.871Z,46.54
2022-09-20T07:18:58.426Z,46.58
2022-09-20T07:21:03.122Z,46.60
2022-09-20T07:23:06.455Z,46.33
2022-09-20T07:25:10.464Z,46.58
2022-09-20T07:27:16.453Z,46.40
2022-09-20T07:29:19.316Z,46.57
2022-09-20T07:31:27.033Z,46.32
2022-09-20T07:33:31.550Z,46.44
2022-09-20T07:35:34.573Z,46.53
2022-09-20T07:37:42.246Z,46.38
2022-09-20T07:39:46.059Z,46.18
2022-09-20T07:41:50.890Z,46.26
2022-09-20T07:43:54.183Z,46.17
2022-09-20T07:45:59.647Z,46.14
2022-09-20T07:48:05.981Z,46.06
2022-09-20T07:50:09.912Z,45.80
2022-09-20T07:52:14.656Z,45.77
2022-09-20T07:54:21.344Z,45.64
2022-09-20T07:56:24.218Z,45.75
2022-09-20T07:58:30.637Z,45.85
2022-09-20T08:00:33.630Z,45.71
2022-09-20T08:02:37.219Z,45.65
2022-09-20T08:04:41.209Z,45.69
2022-09-20T08:06:46.105Z,45.36
2022-09-20T08:08:49.413Z,45.45
2022-09-20T08:10:56.784Z,45.46
2022-09-20T08:15:26.809Z,45.03
2022-09-20T08:17:30.550Z,44.94
2022-09-20T08:19:35.739Z,44.85
2022-09-20T08:21:42.346Z,44.79
2022-09-20T08:23:48.834Z,44.69
2022-09-20T08:25:57.531Z,44.56
2022-09-20T08:28:00.516Z,44.77
2022-09-20T08:30:03.667Z,44.78
2022-09-20T08:32:06.921Z,44.49
2022-09-20T08:34:11.724Z,44.63
2022-09-20T08:36:16.909Z,44.29
2022-09-20T08:40:44.679Z,44.39
2022-09-20T08:42:49.416Z,44.37
2022-09-20T08:44:58.130Z,44.34
2022-09-20T08:47:11.838Z,44.10
2022-09-20T08:49:21.717Z,44.11
2022-09-20T08:51:34.667Z,44.02
2022-09-20T08:53:49.216Z,43.94
2022-09-20T08:55:52.716Z,43.76
2022-09-20T08:57:59.303Z,43.73
2022-09-20T09:00:04.750Z,43.53
2022-09-20T09:02:20.032Z,43.73
2022-09-20T09:04:24.824Z,43.47
2022-09-20T09:06:29.888Z,43.30
2022-09-20T09:08:38.002Z,43.39
2022-09-20T09:10:44.209Z,43.30
2022-09-20T09:12:49.417Z,43.40
2022-09-20T09:14:59.764Z,43.28
2022-09-20T09:17:02.867Z,43.30
2022-09-20T09:19:33.202Z,43.12
2022-09-20T09:21:36.460Z,42.91
2022-09-20T09:23:42.617Z,42.90
2022-09-20T09:25:45.604Z,42.79
2022-09-20T09:27:55.040Z,43.00
2022-09-20T09:29:59.678Z,42.79
2022-09-20T09:32:25.296Z,42.65
2022-09-20T09:34:30.372Z,42.60
2022-09-20T09:36:34.759Z,42.60
2022-09-20T09:38:40.143Z,42.62
2022-09-20T09:40:51.235Z,42.52
2022-09-20T09:42:56.410Z,42.37
2022-09-20T09:45:12.235Z,42.22
2022-09-20T09:47:31.615Z,42.17
2022-09-20T09:49:37.067Z,42.35
2022-09-20T09:51:42.651Z,42.25
2022-09-20T09:53:47.816Z,42.19
2022-09-20T09:56:19.532Z,41.98
2022-09-20T09:58:33.898Z,41.91
2022-09-20T10:00:43.073Z,41.98
2022-09-20T10:03:14.378Z,41.69
2022-09-20T10:05:24.310Z,41.73
2022-09-20T10:07:39.051Z,41.43
2022-09-20T10:10:00.114Z,41.39
2022-09-20T10:12:26.910Z,41.44
2022-09-20T10:14:41.528Z,41.29
2022-09-20T10:17:06.592Z,41.29
2022-09-20T10:19:22.059Z,41.09
2022-09-20T10:21:41.635Z,40.93
2022-09-20T10:24:04.639Z,40.87
2022-09-20T10:26:22.628Z,40.87
2022-09-20T10:28:49.311Z,40.93
2022-09-20T10:31:03.492Z,40.77
2022-09-20T10:33:19.862Z,40.49
2022-09-20T10:35:28.333Z,40.57
2022-09-20T10:37:44.041Z,40.52
2022-09-20T10:40:00.458Z,40.31
2022-09-20T10:42:37.085Z,40.39
2022-09-20T10:44:53.865Z,40.49
2022-09-20T10:47:06.800Z,40.19
2022-09-20T10:49:23.715Z,40.31
2022-09-20T10:51:39.279Z,40.32
2022-09-20T10:53:50.351Z,40.04
2022-09-20T10:56:04.393Z,40.26
2022-09-20T10:58:31.835Z,40.06
2022-09-20T11:00:47.747Z,40.06
2022-09-20T11:03:04.731Z,40.04
2022-09-20T11:05:21.951Z,39.90
2022-09-20T11:07:38.805Z,39.82
2022-09-20T11:09:49.022Z,39.86
2022-09-20T11:11:55.691Z,39.85
2022-09-20T11:14:04.632Z,39.76
2022-09-20T11:16:14.566Z,39.50
2022-09-20T11:18:23.916Z,39.64
2022-09-20T11:20:31.236Z,39.63
2022-09-20T11:22:40.155Z,39.49
2022-09-20T11:24:46.472Z,39.61
2022-09-20T11:26:53.119Z,39.50
2022-09-20T11:29:00.995Z,39.44
2022-09-20T11:31:11.696Z,39.31
2022-09-20T11:33:20.188Z,39.19
2022-09-20T11:35:31.873Z,39.19
2022-09-20T11:37:40.662Z,39.22
2022-09-20T11:39:50.134Z,39.03
2022-09-20T11:41:57.346Z,39.19
2022-09-20T11:44:04.264Z,39.13
2022-09-20T11:46:11.540Z,38.89
2022-09-20T11:48:21.147Z,38.92
2022-09-20T11:50:48.497Z,38.96
2022-09-20T11:53:03.460Z,38.76
2022-09-20T11:55:34.485Z,38.64
2022-09-20T11:57:38.609Z,38.65
2022-09-20T11:59:43.301Z,38.69
2022-09-20T12:01:47.886Z,38.76
2022-09-20T12:04:08.726Z,38.72
2022-09-20T12:06:29.976Z,38.73
2022-09-20T12:08:37.175Z,38.49
2022-09-20T12:10:42.066Z,38.58
2022-09-20T12:12:49.662Z,38.64
2022-09-20T12:14:59.576Z,38.59
2022-09-20T12:17:07.026Z,38.47
2022-09-20T12:19:14.734Z,38.54
2022-09-20T12:21:20.740Z,38.32
2022-09-20T12:24:03.240Z,38.38
2022-09-20T12:26:14.809Z,38.22
2022-09-20T12:28:17.894Z,38.25
2022-09-20T12:30:23.487Z,38.06
2022-09-20T12:32:47.538Z,38.11
2022-09-20T12:34:50.507Z,38.06
2022-09-20T12:37:20.162Z,38.05
2022-09-20T12:39:30.048Z,37.90
2022-09-20T12:41:55.555Z,37.93
2022-09-20T12:44:05.635Z,37.87
2022-09-20T12:46:12.327Z,37.76
2022-09-20T12:48:20.860Z,37.77
2022-09-20T12:50:42.292Z,37.78
2022-09-20T12:52:55.226Z,37.48
2022-09-20T12:55:04.682Z,37.23
2022-09-20T12:57:28.326Z,37.40
2022-09-20T12:59:31.557Z,37.26
2022-09-20T13:01:38.886Z,37.23
2022-09-20T13:03:43.990Z,36.92
2022-09-20T13:05:48.833Z,36.84
2022-09-20T13:08:01.571Z,36.90
2022-09-20T13:10:15.236Z,36.80
2022-09-20T13:12:19.648Z,36.72
2022-09-20T13:14:26.028Z,36.54
2022-09-20T13:16:33.243Z,36.35
2022-09-20T13:18:37.822Z,36.07
2022-09-20T13:20:44.463Z,35.62
2022-09-20T13:22:48.466Z,35.63
2022-09-20T13:24:55.136Z,35.64
2022-09-20T13:27:07.634Z,35.31
2022-09-20T13:29:27.426Z,35.05
2022-09-20T13:31:33.687Z,35.17
2022-09-20T13:33:36.979Z,35.23
2022-09-20T13:35:40.216Z,34.87
2022-09-20T13:37:54.638Z,35.04
2022-09-20T13:39:58.522Z,34.80
2022-09-20T13:42:07.033Z,34.83
2022-09-20T13:44:19.814Z,34.88
2022-09-20T13:46:27.671Z,34.72
2022-09-20T13:48:32.414Z,34.56
2022-09-20T13:50:45.751Z,34.63
2022-09-20T13:52:53.126Z,34.38
2022-09-20T13:54:58.714Z,34.50
2022-09-20T13:57:04.419Z,34.61
2022-09-20T13:59:07.594Z,34.44
2022-09-20T14:01:25.399Z,34.45
2022-09-20T14:03:36.520Z,34.47
2022-09-20T14:05:39.610Z,34.26
2022-09-20T14:07:46.300Z,34.26
2022-09-20T14:09:50.839Z,34.17
2022-09-20T14:11:54.930Z,34.00
2022-09-20T14:14:08.654Z,34.08
2022-09-20T14:16:13.501Z,34.04
2022-09-20T14:18:21.531Z,33.89
2022-09-20T14:20:26.939Z,33.87
2022-09-20T14:22:30.846Z,34.13
2022-09-20T14:24:35.848Z,34.10
2022-09-20T14:26:40.289Z,34.10
2022-09-20T14:28:44.211Z,33.84
2022-09-20T14:30:49.353Z,33.73
2022-09-20T14:32:55.719Z,33.87
2022-09-20T14:35:06.016Z,33.70
2022-09-20T14:37:15.224Z,33.81
2022-09-20T14:39:20.179Z,33.95
2022-09-20T14:41:29.821Z,34.09
2022-09-20T14:43:34.877Z,33.86
2022-09-20T14:45:39.952Z,33.83
2022-09-20T14:47:55.183Z,33.91
2022-09-20T14:49:59.494Z,33.89
2022-09-20T14:52:36.430Z,33.90
2022-09-20T14:54:39.248Z,33.95
2022-09-20T14:56:43.798Z,33.87
2022-09-20T14:59:05.865Z,33.81
2022-09-20T15:01:24.346Z,33.76
2022-09-20T15:03:31.117Z,33.89
2022-09-20T15:05:34.218Z,33.83
2022-09-20T15:07:42.031Z,33.63
2022-09-20T15:09:44.796Z,33.74
2022-09-20T15:11:49.972Z,33.57
2022-09-20T15:13:53.017Z,33.57
2022-09-20T15:15:56.285Z,33.68
2022-09-20T15:17:59.076Z,33.67
2022-09-20T15:20:05.602Z,33.84
2022-09-20T15:22:11.015Z,33.76
2022-09-20T15:24:17.876Z,33.77
2022-09-20T15:26:21.959Z,33.74
2022-09-20T15:28:26.732Z,33.73
2022-09-20T15:30:30.342Z,33.58
2022-09-20T15:32:33.563Z,33.71
2022-09-20T15:34:36.444Z,33.68
2022-09-20T15:36:40.392Z,33.72
2022-09-20T15:38:43.351Z,33.80
2022-09-20T15:40:51.453Z,33.67
2022-09-20T15:42:58.123Z,33.74
2022-09-20T15:45:01.917Z,33.66
2022-09-20T15:47:05.672Z,33.69
2022-09-20T15:49:09.904Z,33.76
2022-09-20T15:51:15.097Z,33.95
2022-09-20T15:53:18.406Z,33.62
2022-09-20T15:55:22.310Z,33.57
2022-09-20T15:57:26.875Z,33.77
2022-09-20T15:59:29.557Z,33.85
2022-09-20T16:01:35.523Z,33.71
2022-09-20T16:03:38.730Z,33.68
2022-09-20T16:05:41.501Z,33.83
2022-09-20T16:07:44.318Z,33.90
2022-09-20T16:09:47.144Z,33.76
2022-09-20T16:11:50.588Z,33.70
2022-09-20T16:13:55.995Z,33.80
2022-09-20T16:16:00.690Z,33.90
2022-09-20T16:18:20.944Z,33.78
2022-09-20T16:20:23.620Z,33.98
2022-09-20T16:22:26.834Z,34.04
2022-09-20T16:24:31.598Z,33.90
2022-09-20T16:26:35.436Z,33.79
2022-09-20T16:28:38.235Z,33.91
2022-09-20T16:30:42.405Z,33.86
2022-09-20T16:32:46.240Z,33.79
2022-09-20T16:34:49.766Z,33.68
2022-09-20T16:36:54.165Z,33.95
2022-09-20T16:38:57.190Z,34.01
2022-09-20T16:41:02.408Z,34.12
2022-09-20T16:43:08.719Z,33.92
2022-09-20T16:45:13.329Z,33.96
2022-09-20T16:47:20.398Z,33.90
2022-09-20T16:49:26.707Z,33.97
2022-09-20T16:51:31.841Z,34.07
2022-09-20T16:53:34.721Z,34.11
2022-09-20T16:55:38.374Z,34.16
2022-09-20T16:57:41.050Z,34.23
2022-09-20T16:59:44.351Z,34.02
2022-09-20T17:01:47.896Z,34.26
2022-09-20T17:03:52.580Z,34.31
2022-09-20T17:06:02.043Z,34.36
2022-09-20T17:08:04.946Z,34.40
2022-09-20T17:10:08.734Z,34.43
2022-09-20T17:12:12.339Z,34.22
2022-09-20T17:14:17.175Z,34.41
2022-09-20T17:16:21.792Z,34.42
2022-09-20T17:18:25.291Z,34.60
2022-09-20T17:20:30.038Z,34.66
2022-09-20T17:22:32.834Z,34.66
2022-09-20T17:24:35.586Z,34.70
2022-09-20T17:26:40.134Z,34.69
2022-09-20T17:28:46.016Z,34.86
2022-09-20T17:30:48.896Z,34.89
2022-09-20T17:32:51.725Z,34.92
2022-09-20T17:34:54.404Z,35.06
2022-09-20T17:36:59.074Z,34.94
2022-09-20T17:39:04.607Z,35.21
2022-09-20T17:41:10.111Z,35.14
2022-09-20T17:43:12.909Z,35.11
2022-09-20T17:45:16.652Z,35.36
2022-09-20T17:47:19.897Z,35.28
2022-09-20T17:49:23.903Z,35.48
2022-09-20T17:51:30.046Z,35.65
2022-09-20T17:53:35.794Z,35.61
2022-09-20T17:55:38.717Z,35.70
2022-09-20T17:57:41.618Z,35.74
2022-09-20T17:59:44.759Z,35.91
2022-09-20T18:01:50.616Z,35.94
2022-09-20T18:03:53.376Z,36.11
2022-09-20T18:05:56.091Z,36.05
2022-09-20T18:07:59.382Z,36.11
2022-09-20T18:10:03.480Z,36.41
2022-09-20T18:12:08.712Z,36.31
2022-09-20T18:14:11.764Z,36.37
2022-09-20T18:16:17.080Z,36.54
2022-09-20T18:18:20.062Z,36.49
2022-09-20T18:20:22.824Z,36.49
2022-09-20T18:22:25.645Z,36.48
2022-09-20T18:24:28.407Z,36.61
2022-09-20T18:26:33.315Z,36.56
2022-09-20T18:28:36.098Z,36.67
2022-09-20T18:30:39.903Z,36.75
2022-09-20T18:32:44.420Z,36.75
2022-09-20T18:34:51.101Z,36.89
2022-09-20T18:36:56.383Z,36.86
2022-09-20T18:38:59.847Z,36.77
2022-09-20T18:41:03.230Z,36.69
2022-09-20T18:43:09.067Z,36.83
2022-09-20T18:45:12.794Z,36.98
2022-09-20T18:47:15.495Z,36.91
2022-09-20T18:49:18.217Z,37.06
2022-09-20T18:51:22.342Z,36.93
2022-09-20T18:53:27.283Z,36.84
2022-09-20T18:55:31.122Z,36.92
2022-09-20T18:57:34.482Z,37.00
2022-09-20T18:59:39.307Z,37.00
2022-09-20T19:02:02.404Z,36.96
2022-09-20T19:04:22.764Z,36.97
2022-09-20T19:06:31.555Z,37.09
2022-09-20T19:08:42.394Z,36.88
2022-09-20T19:10:50.510Z,37.00
2022-09-20T19:13:03.512Z,37.15
2022-09-20T19:15:21.471Z,37.06
2022-09-20T19:17:35.488Z,36.87
2022-09-20T19:19:46.774Z,37.03
2022-09-20T19:21:58.536Z,37.09
2022-09-20T19:24:12.511Z,37.20
2022-09-20T19:26:21.895Z,37.09
2022-09-20T19:28:25.781Z,37.22
2022-09-20T19:30:30.701Z,37.09
2022-09-20T19:32:34.850Z,37.30
2022-09-20T19:34:39.741Z,36.95
2022-09-20T19:36:54.328Z,37.07
2022-09-20T19:39:08.912Z,37.20
2022-09-20T19:41:27.468Z,37.19
2022-09-20T19:43:46.539Z,37.04
2022-09-20T19:45:57.311Z,37.10
2022-09-20T19:48:07.456Z,37.18
2022-09-20T19:50:17.149Z,37.28
2022-09-20T19:52:21.713Z,37.10
2022-09-20T19:54:25.411Z,37.00
2022-09-20T19:56:29.659Z,37.19
2022-09-20T19:58:33.042Z,37.15
2022-09-20T20:00:36.722Z,37.15
2022-09-20T20:02:42.693Z,37.14
2022-09-20T20:04:46.226Z,37.15
2022-09-20T20:07:00.518Z,37.08
2022-09-20T20:09:10.104Z,37.03
2022-09-20T20:11:21.872Z,37.12
2022-09-20T20:13:50.816Z,36.80
2022-09-20T20:16:01.166Z,36.83
2022-09-20T20:18:16.812Z,37.01
2022-09-20T20:20:27.175Z,36.89
2022-09-20T20:22:47.711Z,36.76
2022-09-20T20:24:52.490Z,36.76
2022-09-20T20:26:55.786Z,36.90
2022-09-20T20:29:02.426Z,36.96
2022-09-20T20:31:06.126Z,36.93
2022-09-20T20:33:15.217Z,36.81
2022-09-20T20:35:20.602Z,36.71
2022-09-20T20:37:23.905Z,36.78
2022-09-20T20:39:26.763Z,36.72
2022-09-20T20:41:31.801Z,36.92
2022-09-20T20:43:36.373Z,36.74
2022-09-20T20:45:41.727Z,36.54
2022-09-20T20:47:46.691Z,36.75
2022-09-20T20:49:53.337Z,36.73
2022-09-20T20:51:59.734Z,36.68
2022-09-20T20:54:04.522Z,36.84
2022-09-20T20:56:09.750Z,36.74
2022-09-20T20:58:12.818Z,36.90
2022-09-20T21:00:16.621Z,36.74
2022-09-20T21:02:19.626Z,36.81
